Time;durP1;ratioP1;P1;durP2;ratioP2;P2;SDS_P1;SDS_P2;PMS_P1;PMS_P2;Temp;Humidity;BMP_temperature;BMP_pressure;BME280_temperature;BME280_humidity;BME280_pressure;Samples;Min_cycle;Max_cycle;Signal;HPM_P1;HPM_P2
2024/02/01 00:00:35;;;;;;;10.15;3.75;;;4.10;96.50;;;;;;5047987;28;20031;-76
2024/02/01 00:03:01;;;;;;;10.55;7.03;;;4.00;96.60;;;;;;5049272;28;20604;-76
2024/02/01 00:05:26;;;;;;;5.93;3.33;;;4.00;96.90;;;;;;5050237;28;20016;-76
2024/02/01 00:07:52;;;;;;;6.97;3.00;;;4.00;96.70;;;;;;5047077;28;20052;-76
2024/02/01 00:10:18;;;;;;;5.18;2.55;;;4.00;96.70;;;;;;5049915;28;20048;-77
2024/02/01 00:12:43;;;;;;;7.30;3.38;;;4.10;96.70;;;;;;5049308;28;20128;-76
2024/02/01 00:15:10;;;;;;;5.15;2.75;;;4.10;96.70;;;;;;5048529;28;20047;-76
2024/02/01 00:17:35;;;;;;;7.95;3.63;;;4.10;96.80;;;;;;5050127;28;20098;-76
2024/02/01 00:20:01;;;;;;;11.48;6.65;;;3.90;97.00;;;;;;5048315;28;20032;-76
2024/02/01 00:22:26;;;;;;;5.85;3.60;;;3.90;97.60;;;;;;5049008;28;20082;-76
2024/02/01 00:24:53;;;;;;;6.57;3.08;;;3.90;97.20;;;;;;5050490;28;20512;-76
2024/02/01 00:27:19;;;;;;;5.65;3.00;;;3.90;97.20;;;;;;5049626;28;20363;-76
2024/02/01 00:29:45;;;;;;;7.55;4.10;;;3.80;97.60;;;;;;5050642;28;20089;-76
2024/02/01 00:32:10;;;;;;;5.90;2.85;;;3.90;97.60;;;;;;5049775;28;20067;-76
2024/02/01 00:34:41;;;;;;;9.57;3.83;;;4.10;97.20;;;;;;5050074;28;20028;-77
2024/02/01 00:37:07;;;;;;;9.95;3.75;;;4.10;97.10;;;;;;5050625;28;20037;-76
2024/02/01 00:39:33;;;;;;;8.43;4.30;;;4.10;97.20;;;;;;5048169;28;20036;-76
2024/02/01 00:41:58;;;;;;;6.70;3.40;;;4.10;97.30;;;;;;5049302;28;20089;-77
2024/02/01 00:44:24;;;;;;;9.65;3.78;;;4.10;97.10;;;;;;5051922;28;20045;-77
2024/02/01 00:46:49;;;;;;;6.90;3.38;;;4.00;97.10;;;;;;5049082;28;20024;-77
2024/02/01 00:49:15;;;;;;;5.47;3.17;;;4.30;96.90;;;;;;5048853;28;20032;-77
2024/02/01 00:51:41;;;;;;;5.75;3.15;;;4.40;96.70;;;;;;5050885;28;20051;-76
2024/02/01 00:54:07;;;;;;;7.93;3.40;;;4.40;96.60;;;;;;5052241;28;20024;-77
2024/02/01 00:56:32;;;;;;;6.00;3.45;;;4.40;96.90;;;;;;5049921;28;20036;-77
2024/02/01 00:58:58;;;;;;;7.88;3.15;;;4.40;96.80;;;;;;5053418;28;21040;-77
2024/02/01 01:01:24;;;;;;;6.18;3.38;;;4.40;96.60;;;;;;5053349;28;20056;-76
2024/02/01 01:03:50;;;;;;;7.45;3.47;;;4.40;96.70;;;;;;5053677;28;20398;-77
2024/02/01 01:06:15;;;;;;;6.00;3.40;;;4.30;97.00;;;;;;5054835;28;20028;-77
2024/02/01 01:08:41;;;;;;;5.82;3.17;;;4.10;97.10;;;;;;5055369;28;20734;-77
2024/02/01 01:11:07;;;;;;;9.95;3.40;;;4.20;97.20;;;;;;5054037;28;20032;-77
2024/02/01 01:13:32;;;;;;;6.22;3.70;;;4.00;97.30;;;;;;5053218;28;20077;-77
2024/02/01 01:15:58;;;;;;;7.40;3.75;;;3.90;97.70;;;;;;5054929;28;20032;-77
2024/02/01 01:18:24;;;;;;;9.32;4.03;;;3.90;97.70;;;;;;5052769;28;20064;-77
2024/02/01 01:20:49;;;;;;;7.55;3.63;;;3.80;97.90;;;;;;5054345;28;20035;-77
2024/02/01 01:23:15;;;;;;;7.40;3.65;;;3.70;97.80;;;;;;5055492;28;20804;-77
2024/02/01 01:25:41;;;;;;;7.47;3.50;;;3.70;97.80;;;;;;5053357;28;20025;-77
2024/02/01 01:28:06;;;;;;;6.13;2.97;;;3.70;97.80;;;;;;5053599;28;20456;-76
2024/02/01 01:30:32;;;;;;;9.13;3.42;;;4.00;97.60;;;;;;5054291;28;20436;-77
2024/02/01 01:32:58;;;;;;;5.65;3.17;;;3.70;98.00;;;;;;5051197;28;20130;-77
2024/02/01 01:35:23;;;;;;;7.50;3.58;;;3.50;98.50;;;;;;5053167;28;20036;-77
2024/02/01 01:37:49;;;;;;;8.15;4.35;;;3.40;98.80;;;;;;5052108;28;20036;-77
2024/02/01 01:40:15;;;;;;;9.02;3.50;;;3.50;98.80;;;;;;5053916;28;20028;-77
2024/02/01 01:42:45;;;;;;;5.97;3.05;;;3.60;98.70;;;;;;5052042;28;20067;-77
2024/02/01 01:45:11;;;;;;;6.80;3.92;;;3.90;98.30;;;;;;5055038;28;20486;-76
2024/02/01 01:47:37;;;;;;;8.32;3.30;;;4.40;97.70;;;;;;5049057;28;20029;-76
2024/02/01 01:50:02;;;;;;;5.18;2.95;;;4.40;97.40;;;;;;5052477;28;20074;-77
2024/02/01 01:52:29;;;;;;;7.25;3.22;;;4.30;97.70;;;;;;5051420;28;21192;-76
2024/02/01 01:54:58;;;;;;;8.35;3.40;;;3.80;98.20;;;;;;5047959;28;20028;-77
2024/02/01 01:57:27;;;;;;;8.45;4.28;;;3.80;98.80;;;;;;5052230;28;20033;-77
2024/02/01 01:59:55;;;;;;;7.47;3.72;;;3.80;98.80;;;;;;5050874;28;20093;-76
2024/02/01 02:02:22;;;;;;;8.63;3.88;;;3.90;98.30;;;;;;5053165;28;20043;-76
2024/02/01 02:04:50;;;;;;;9.65;4.57;;;3.80;98.60;;;;;;5054128;28;20049;-75
2024/02/01 02:07:16;;;;;;;8.60;4.63;;;3.70;99.00;;;;;;5053032;28;20119;-77
2024/02/01 02:09:43;;;;;;;6.45;3.05;;;3.60;99.30;;;;;;5052476;28;20067;-76
2024/02/01 02:12:10;;;;;;;6.63;2.50;;;3.50;99.10;;;;;;5048452;28;20082;-76
2024/02/01 02:14:36;;;;;;;10.63;3.25;;;3.60;99.00;;;;;;5054629;28;20032;-76
2024/02/01 02:17:03;;;;;;;5.65;2.85;;;3.70;98.80;;;;;;5053045;28;20094;-77
2024/02/01 02:19:29;;;;;;;6.85;2.67;;;3.80;98.50;;;;;;5052586;28;20037;-77
2024/02/01 02:21:54;;;;;;;6.68;3.55;;;3.90;98.40;;;;;;5051296;28;20032;-76
2024/02/01 02:24:21;;;;;;;6.28;2.90;;;3.90;98.50;;;;;;5051993;28;20048;-76
2024/02/01 02:26:48;;;;;;;7.70;3.15;;;3.80;98.80;;;;;;5054679;28;20486;-74
2024/02/01 02:29:15;;;;;;;6.90;3.08;;;3.50;99.60;;;;;;5050357;28;20087;-76
2024/02/01 02:31:46;;;;;;;7.40;3.05;;;3.20;99.90;;;;;;5046608;28;20040;-76
2024/02/01 02:34:12;;;;;;;7.35;3.53;;;3.20;99.90;;;;;;5053487;28;20032;-77
2024/02/01 02:36:38;;;;;;;5.93;2.53;;;3.30;99.60;;;;;;5052812;28;20037;-76
2024/02/01 02:39:04;;;;;;;9.38;3.53;;;3.10;99.90;;;;;;5049494;28;20089;-76
2024/02/01 02:41:30;;;;;;;6.38;3.20;;;2.80;99.90;;;;;;5053186;28;20486;-76
2024/02/01 02:44:01;;;;;;;5.45;2.92;;;2.60;99.90;;;;;;5051634;28;20048;-76
2024/02/01 02:46:27;;;;;;;5.95;3.22;;;2.60;99.90;;;;;;5052768;28;20860;-76
2024/02/01 02:48:53;;;;;;;11.35;4.18;;;2.80;99.90;;;;;;5050575;28;20540;-77
2024/02/01 02:51:19;;;;;;;5.63;2.90;;;2.90;99.90;;;;;;5053511;28;20032;-77
2024/02/01 02:53:44;;;;;;;5.75;2.88;;;3.00;99.90;;;;;;5051656;28;20110;-76
2024/02/01 02:56:10;;;;;;;5.90;2.80;;;3.00;99.90;;;;;;5053021;28;20028;-77
2024/02/01 02:58:39;;;;;;;7.35;2.67;;;3.00;99.90;;;;;;5053857;28;20071;-77
2024/02/01 03:01:08;;;;;;;5.07;2.45;;;2.90;99.90;;;;;;5048999;28;20048;-77
2024/02/01 03:03:40;;;;;;;5.93;2.95;;;2.70;99.90;;;;;;5051086;28;20036;-76
2024/02/01 03:06:14;;;;;;;7.82;3.28;;;2.90;99.90;;;;;;5051516;28;20032;-76
2024/02/01 03:08:43;;;;;;;8.13;3.08;;;3.10;99.90;;;;;;5052059;28;20136;-77
2024/02/01 03:11:13;;;;;;;5.65;3.08;;;3.80;99.90;;;;;;5057138;28;20032;-76
2024/02/01 03:13:45;;;;;;;7.18;3.22;;;4.30;99.10;;;;;;5055797;28;20029;-76
2024/02/01 03:16:18;;;;;;;5.28;2.70;;;4.30;98.70;;;;;;5055491;28;20044;-76
2024/02/01 03:18:50;;;;;;;6.40;2.90;;;4.40;98.60;;;;;;5054895;28;20068;-76
2024/02/01 03:21:17;;;;;;;5.65;2.67;;;4.30;98.40;;;;;;5054231;28;20029;-76
2024/02/01 03:23:47;;;;;;;6.28;3.33;;;4.20;98.60;;;;;;5051524;28;20478;-76
2024/02/01 03:26:17;;;;;;;6.05;2.85;;;4.30;98.40;;;;;;5055406;28;20667;-76
2024/02/01 03:28:44;;;;;;;5.93;3.25;;;3.90;98.60;;;;;;5055566;28;20040;-76
2024/02/01 03:31:11;;;;;;;8.40;3.50;;;3.60;99.30;;;;;;5056793;28;20032;-77
2024/02/01 03:33:44;;;;;;;7.28;2.83;;;3.80;99.20;;;;;;5037343;28;20037;-76
2024/02/01 03:36:11;;;;;;;12.02;3.30;;;3.60;99.60;;;;;;5052559;28;20402;-75
2024/02/01 03:38:42;;;;;;;6.13;2.90;;;3.70;99.30;;;;;;5056198;28;20032;-75
2024/02/01 03:41:11;;;;;;;6.53;2.90;;;3.80;99.30;;;;;;5055476;28;20044;-75
2024/02/01 03:43:36;;;;;;;8.85;3.10;;;3.80;99.30;;;;;;5051822;28;20436;-75
2024/02/01 03:46:02;;;;;;;6.70;3.13;;;3.80;99.30;;;;;;5056880;28;20032;-76
2024/02/01 03:48:28;;;;;;;8.40;3.80;;;3.30;99.90;;;;;;5055240;28;20044;-76
2024/02/01 03:50:53;;;;;;;9.40;3.30;;;2.80;99.90;;;;;;5054650;28;20041;-76
2024/02/01 03:53:19;;;;;;;7.35;3.33;;;2.70;99.90;;;;;;5056861;28;20486;-76
2024/02/01 03:55:48;;;;;;;8.07;3.08;;;2.80;99.90;;;;;;5056569;28;21718;-75
2024/02/01 03:58:18;;;;;;;6.05;3.13;;;2.70;99.90;;;;;;5054479;28;20032;-75
2024/02/01 04:00:44;;;;;;;7.38;3.10;;;2.90;99.90;;;;;;5052528;28;20385;-76
2024/02/01 04:03:15;;;;;;;5.50;2.55;;;3.00;99.90;;;;;;5052425;28;20044;-75
2024/02/01 04:05:41;;;;;;;6.35;2.90;;;3.20;99.90;;;;;;5050341;28;20055;-75
2024/02/01 04:08:07;;;;;;;5.25;2.95;;;3.40;99.90;;;;;;5049373;28;20032;-76
2024/02/01 04:10:37;;;;;;;5.20;2.55;;;3.30;99.90;;;;;;5050321;28;20063;-76
2024/02/01 04:13:07;;;;;;;5.25;2.60;;;3.20;99.90;;;;;;5049172;28;20048;-76
2024/02/01 04:15:36;;;;;;;5.70;2.85;;;3.10;99.90;;;;;;5048873;28;20043;-76
2024/02/01 04:18:07;;;;;;;7.05;3.03;;;2.90;99.90;;;;;;5048717;28;20082;-76
2024/02/01 04:20:33;;;;;;;7.20;2.90;;;2.80;99.90;;;;;;5048287;28;20029;-76
2024/02/01 04:22:59;;;;;;;6.95;3.00;;;2.70;99.90;;;;;;5048309;28;20054;-75
2024/02/01 04:25:26;;;;;;;5.80;2.78;;;2.80;99.90;;;;;;5048925;28;20506;-75
2024/02/01 04:27:54;;;;;;;5.75;2.70;;;2.90;99.90;;;;;;5049445;28;20093;-76
2024/02/01 04:30:24;;;;;;;5.15;2.80;;;2.90;99.90;;;;;;5044430;28;20059;-76
2024/02/01 04:32:49;;;;;;;6.30;2.90;;;2.90;99.90;;;;;;5049836;28;20031;-76
2024/02/01 04:35:16;;;;;;;4.22;2.30;;;3.00;99.90;;;;;;5045084;28;20036;-76
2024/02/01 04:37:43;;;;;;;6.97;3.00;;;3.10;99.90;;;;;;5051409;28;20041;-76
2024/02/01 04:40:10;;;;;;;4.68;2.22;;;3.20;99.90;;;;;;5050303;28;20040;-76
2024/02/01 04:42:36;;;;;;;5.97;2.58;;;3.30;99.90;;;;;;5048148;28;20043;-76
2024/02/01 04:45:05;;;;;;;6.55;2.80;;;3.40;99.90;;;;;;5048270;28;20196;-75
2024/02/01 04:47:35;;;;;;;8.50;3.50;;;3.40;99.90;;;;;;5045931;28;20558;-76
2024/02/01 04:50:01;;;;;;;7.13;2.72;;;2.90;99.90;;;;;;5047667;28;20033;-76
2024/02/01 04:52:29;;;;;;;7.13;2.15;;;2.80;99.90;;;;;;5047146;28;20072;-76
2024/02/01 04:54:54;;;;;;;6.95;3.08;;;3.10;99.90;;;;;;5047458;28;20025;-76
2024/02/01 04:57:20;;;;;;;6.15;2.90;;;3.30;99.90;;;;;;5047704;28;20094;-75
2024/02/01 04:59:47;;;;;;;4.90;2.53;;;3.50;99.90;;;;;;5044949;28;20035;-75
2024/02/01 05:02:16;;;;;;;6.05;2.95;;;3.70;99.90;;;;;;5046475;28;20444;-76
2024/02/01 05:04:43;;;;;;;6.32;3.03;;;3.40;99.90;;;;;;5045969;28;20091;-75
2024/02/01 05:07:09;;;;;;;5.90;2.65;;;3.00;99.90;;;;;;5046557;28;20086;-75
2024/02/01 05:09:40;;;;;;;6.07;3.08;;;3.00;99.90;;;;;;5046741;28;20052;-75
2024/02/01 05:12:07;;;;;;;8.05;3.03;;;2.70;99.90;;;;;;5047054;28;20020;-75
2024/02/01 05:14:33;;;;;;;7.00;3.50;;;2.50;99.90;;;;;;5048147;28;20052;-75
2024/02/01 05:16:59;;;;;;;8.50;3.30;;;2.50;99.90;;;;;;5045730;28;20043;-74
2024/02/01 05:19:26;;;;;;;5.82;3.03;;;2.40;99.90;;;;;;5045874;28;20037;-77
2024/02/01 05:21:52;;;;;;;5.15;2.30;;;2.50;99.90;;;;;;5046365;28;20032;-76
2024/02/01 05:24:18;;;;;;;6.70;2.67;;;2.60;99.90;;;;;;5044951;28;20052;-77
2024/02/01 05:26:46;;;;;;;5.60;2.70;;;2.60;99.90;;;;;;5045029;28;20634;-77
2024/02/01 05:29:12;;;;;;;8.23;3.33;;;2.50;99.90;;;;;;5047340;28;20644;-77
2024/02/01 05:31:38;;;;;;;7.43;3.08;;;2.70;99.90;;;;;;5045040;28;20040;-77
2024/02/01 05:34:05;;;;;;;6.25;3.03;;;2.80;99.90;;;;;;5046429;28;20425;-75
2024/02/01 05:36:32;;;;;;;8.65;3.20;;;2.70;99.90;;;;;;5047045;28;20032;-75
2024/02/01 05:38:59;;;;;;;6.85;3.42;;;2.70;99.90;;;;;;5046829;28;20035;-75
2024/02/01 05:41:24;;;;;;;7.35;3.05;;;3.00;99.90;;;;;;5047095;28;20036;-75
2024/02/01 05:43:50;;;;;;;7.10;3.00;;;3.00;99.90;;;;;;5047634;28;20044;-75
2024/02/01 05:46:15;;;;;;;5.88;3.20;;;2.80;99.90;;;;;;5043666;28;20682;-75
2024/02/01 05:48:43;;;;;;;5.20;2.47;;;2.60;99.90;;;;;;5046515;28;20067;-76
2024/02/01 05:51:09;;;;;;;4.28;2.42;;;3.40;99.90;;;;;;5044829;28;20029;-75
2024/02/01 05:53:34;;;;;;;6.10;2.40;;;3.40;99.90;;;;;;5044697;28;20082;-76
2024/02/01 05:56:00;;;;;;;6.88;2.47;;;3.50;99.90;;;;;;5046793;28;20363;-76
2024/02/01 05:58:29;;;;;;;8.45;3.35;;;3.40;99.90;;;;;;5047292;28;20562;-76
2024/02/01 06:00:54;;;;;;;5.43;3.35;;;3.10;99.90;;;;;;5044175;28;20028;-75
2024/02/01 06:03:20;;;;;;;5.70;3.05;;;2.70;99.90;;;;;;5046579;28;20059;-76
2024/02/01 06:05:48;;;;;;;5.20;2.80;;;2.60;99.90;;;;;;5046802;28;20611;-76
2024/02/01 06:08:18;;;;;;;8.52;4.30;;;2.50;99.90;;;;;;5046616;28;20045;-76
2024/02/01 06:10:44;;;;;;;7.20;3.20;;;2.50;99.90;;;;;;5045039;28;20032;-76
2024/02/01 06:13:11;;;;;;;12.48;5.53;;;2.80;99.90;;;;;;5046145;28;20037;-75
2024/02/01 06:15:37;;;;;;;7.65;3.40;;;2.80;99.90;;;;;;5047223;28;20059;-75
2024/02/01 06:18:04;;;;;;;7.22;3.30;;;3.00;99.90;;;;;;5048969;28;20102;-74
2024/02/01 06:20:30;;;;;;;22.42;8.23;;;3.10;99.90;;;;;;5048430;28;20032;-75
2024/02/01 06:22:57;;;;;;;11.48;5.65;;;3.00;99.90;;;;;;5046015;28;20032;-75
2024/02/01 06:25:23;;;;;;;9.18;3.03;;;2.60;99.90;;;;;;5043474;28;20719;-73
2024/02/01 06:27:48;;;;;;;10.05;4.10;;;3.50;99.90;;;;;;5044595;28;20040;-73
2024/02/01 06:30:15;;;;;;;8.15;3.60;;;3.30;99.90;;;;;;5045386;28;20039;-74
2024/02/01 06:32:41;;;;;;;9.32;3.10;;;3.10;99.90;;;;;;5028529;28;20569;-74
2024/02/01 06:35:16;;;;;;;10.15;3.95;;;3.50;99.90;;;;;;5028463;28;20840;-73
2024/02/01 06:37:42;;;;;;;;;;;3.50;99.90;;;;;;5047625;28;20024;-74
2024/02/01 06:43:09;;;;;;;;;;;3.10;99.90;;;;;;5049756;28;20102;-73
2024/02/01 06:45:47;;;;;;;6.28;2.78;;;3.60;99.90;;;;;;5034701;28;20633;-74
2024/02/01 06:48:14;;;;;;;6.25;3.47;;;4.00;99.90;;;;;;5051144;28;20136;-73
2024/02/01 06:50:54;;;;;;;8.00;3.13;;;3.60;99.90;;;;;;5048884;28;20042;-73
2024/02/01 06:53:37;;;;;;;6.43;2.53;;;3.90;99.90;;;;;;5049080;28;20045;-74
2024/02/01 06:56:28;;;;;;;6.03;2.50;;;4.20;99.80;;;;;;5032215;28;20366;-73
2024/02/01 06:59:10;;;;;;;8.35;3.17;;;4.00;99.80;;;;;;5049798;28;20029;-73
2024/02/01 07:01:51;;;;;;;6.90;2.60;;;4.20;99.80;;;;;;5050863;28;20032;-72
2024/02/01 07:04:20;;;;;;;6.72;2.50;;;4.20;99.90;;;;;;5047095;28;20052;-75
2024/02/01 07:07:18;;;;;;;5.47;2.22;;;4.20;99.70;;;;;;5055780;28;20853;-74
2024/02/01 07:09:37;;;;;;;6.30;2.75;;;4.20;99.70;;;;;;5052057;28;21441;-74
2024/02/01 07:15:19;;;;;;;6.30;3.42;;;3.80;99.90;;;;;;5013312;28;21518;-73
2024/02/01 07:17:48;;;;;;;9.40;3.13;;;3.60;99.90;;;;;;5049767;28;20044;-72
2024/02/01 07:20:23;;;;;;;6.90;3.50;;;3.50;99.90;;;;;;5045133;28;20029;-72
2024/02/01 07:23:04;;;;;;;7.90;3.17;;;3.30;99.90;;;;;;5048726;28;21229;-72
2024/02/01 07:25:43;;;;;;;5.53;2.95;;;3.30;99.90;;;;;;5048901;28;20045;-72
2024/02/01 07:58:19;;;;;;;7.85;4.10;;;3.30;99.90;;;;;;5047252;28;20328;-72
2024/02/01 08:00:51;;;;;;;8.38;4.15;;;3.20;99.90;;;;;;5049952;28;21143;-72
2024/02/01 08:08:53;;;;;;;9.57;4.65;;;3.60;99.90;;;;;;5049195;28;20110;-75
2024/02/01 08:11:19;;;;;;;7.93;4.35;;;3.70;99.90;;;;;;5047500;28;22644;-72
2024/02/01 08:13:48;;;;;;;7.65;3.65;;;3.70;99.90;;;;;;5048141;28;20033;-76
2024/02/01 08:16:17;;;;;;;9.25;4.05;;;3.60;99.90;;;;;;5047607;28;20212;-74
2024/02/01 08:18:43;;;;;;;6.95;3.65;;;3.80;99.90;;;;;;5047127;28;20036;-74
2024/02/01 08:21:14;;;;;;;10.10;3.53;;;4.00;99.90;;;;;;5046755;28;20036;-75
2024/02/01 08:23:41;;;;;;;6.45;2.78;;;4.10;99.90;;;;;;5047972;28;20512;-74
2024/02/01 08:26:06;;;;;;;7.18;3.10;;;4.30;99.90;;;;;;5047482;28;20090;-74
2024/02/01 08:28:32;;;;;;;4.60;2.42;;;4.40;99.90;;;;;;5045505;28;20482;-75
2024/02/01 08:31:03;;;;;;;8.65;3.15;;;4.60;99.90;;;;;;5048630;28;20043;-75
2024/02/01 08:33:29;;;;;;;6.10;2.83;;;4.70;99.90;;;;;;5048544;28;20056;-74
2024/02/01 08:35:55;;;;;;;5.68;3.10;;;4.90;99.90;;;;;;5047128;28;20120;-77
2024/02/01 08:38:21;;;;;;;6.97;3.65;;;4.90;99.90;;;;;;5048367;28;20429;-77
2024/02/01 08:40:47;;;;;;;7.28;3.78;;;4.60;99.90;;;;;;5047547;28;20025;-76
2024/02/01 08:43:13;;;;;;;8.02;4.30;;;4.50;99.90;;;;;;5049057;28;20039;-76
2024/02/01 08:45:44;;;;;;;7.90;4.07;;;4.20;99.90;;;;;;5048347;28;20300;-74
2024/02/01 08:48:10;;;;;;;10.15;4.82;;;4.30;99.90;;;;;;5048291;28;20036;-76
2024/02/01 08:50:48;;;;;;;7.30;3.60;;;4.30;99.90;;;;;;5047075;28;20032;-77
2024/02/01 08:53:16;;;;;;;7.35;3.47;;;4.30;99.90;;;;;;5049845;28;20098;-76
2024/02/01 08:55:43;;;;;;;7.35;3.72;;;4.50;99.90;;;;;;5046849;28;20040;-76
2024/02/01 08:58:08;;;;;;;10.27;4.88;;;4.60;99.90;;;;;;5044229;28;20127;-76
2024/02/01 09:00:43;;;;;;;7.90;4.60;;;4.20;99.90;;;;;;5048380;28;20097;-76
2024/02/01 09:03:17;;;;;;;8.48;4.70;;;4.00;99.90;;;;;;5047497;28;20036;-76
2024/02/01 09:05:45;;;;;;;10.13;4.57;;;3.90;99.90;;;;;;5047339;28;20040;-76
2024/02/01 09:08:24;;;;;;;7.65;4.50;;;4.20;99.90;;;;;;5029314;28;20036;-76
2024/02/01 09:10:57;;;;;;;11.73;4.95;;;4.30;99.90;;;;;;5047092;28;20071;-76
2024/02/01 09:13:24;;;;;;;9.25;4.25;;;4.40;99.90;;;;;;5048342;28;20078;-76
2024/02/01 09:15:53;;;;;;;10.10;4.22;;;4.40;99.90;;;;;;5047175;28;20600;-77
2024/02/01 09:18:19;;;;;;;8.07;3.78;;;4.60;99.90;;;;;;5047224;28;20036;-76
2024/02/01 09:20:46;;;;;;;8.00;3.90;;;4.70;99.90;;;;;;5048044;28;20111;-76
2024/02/01 09:23:11;;;;;;;10.48;4.38;;;4.70;99.90;;;;;;5047465;28;20028;-76
2024/02/01 09:25:38;;;;;;;8.38;4.45;;;4.80;99.90;;;;;;5049150;28;20446;-76
2024/02/01 09:28:12;;;;;;;9.48;4.57;;;4.70;99.90;;;;;;5046303;28;20040;-76
2024/02/01 09:30:47;;;;;;;15.98;8.80;;;4.70;99.90;;;;;;5048401;28;20060;-76
2024/02/01 09:33:18;;;;;;;15.85;8.35;;;4.70;99.90;;;;;;5051389;28;20553;-76
2024/02/01 09:35:45;;;;;;;20.75;9.45;;;4.70;99.90;;;;;;5050195;28;20517;-76
2024/02/01 09:38:11;;;;;;;19.17;10.23;;;4.50;99.90;;;;;;5049219;28;20032;-76
2024/02/01 09:40:43;;;;;;;18.67;10.75;;;4.40;99.90;;;;;;5041509;28;20044;-74
2024/02/01 09:43:22;;;;;;;13.98;6.85;;;4.50;99.90;;;;;;5050203;28;20024;-76
2024/02/01 09:45:51;;;;;;;10.02;5.40;;;4.60;99.90;;;;;;5048424;28;20535;-75
2024/02/01 09:48:18;;;;;;;9.90;4.50;;;4.80;99.90;;;;;;5047575;28;20106;-76
2024/02/01 09:50:52;;;;;;;10.98;6.20;;;5.00;99.90;;;;;;5046781;28;20475;-76
2024/02/01 09:53:22;;;;;;;11.85;5.70;;;4.50;99.90;;;;;;5048011;28;20036;-76
2024/02/01 09:55:50;;;;;;;12.02;6.10;;;4.40;99.90;;;;;;5049002;28;20036;-76
2024/02/01 09:58:19;;;;;;;11.13;5.88;;;4.40;99.90;;;;;;5047623;28;20132;-76
2024/02/01 10:00:46;;;;;;;12.18;5.43;;;4.40;99.90;;;;;;5047161;28;20029;-76
2024/02/01 10:03:15;;;;;;;7.38;3.42;;;4.40;99.90;;;;;;5046067;28;20625;-76
2024/02/01 10:05:44;;;;;;;8.88;4.80;;;4.50;99.90;;;;;;5047054;28;20501;-76
2024/02/01 10:08:14;;;;;;;10.23;4.30;;;4.70;99.90;;;;;;5047848;28;21546;-76
2024/02/01 10:10:44;;;;;;;8.82;5.03;;;4.70;99.90;;;;;;5005186;28;20055;-76
2024/02/01 10:13:14;;;;;;;9.25;4.50;;;4.80;99.90;;;;;;5009576;28;20483;-76
2024/02/01 10:15:46;;;;;;;11.60;4.18;;;5.00;99.90;;;;;;5007369;28;20052;-77
2024/02/01 10:18:22;;;;;;;13.68;5.55;;;5.00;99.90;;;;;;5009811;28;20138;-76
2024/02/01 10:20:51;;;;;;;12.80;5.63;;;4.60;99.90;;;;;;5013726;28;20033;-76
2024/02/01 10:23:21;;;;;;;10.40;5.28;;;4.40;99.90;;;;;;5015308;28;20053;-76
2024/02/01 10:25:49;;;;;;;11.55;5.50;;;4.30;99.90;;;;;;5016003;28;20029;-74
2024/02/01 10:28:18;;;;;;;10.25;4.63;;;4.30;99.90;;;;;;5012540;28;20094;-76
2024/02/01 10:30:45;;;;;;;10.80;4.88;;;4.40;99.90;;;;;;5013919;28;20040;-77
2024/02/01 10:33:14;;;;;;;10.40;4.22;;;4.40;99.90;;;;;;5015659;28;20048;-76
2024/02/01 10:35:42;;;;;;;9.43;4.63;;;4.70;99.90;;;;;;5013808;28;20036;-76
2024/02/01 10:38:13;;;;;;;9.00;4.68;;;4.80;99.90;;;;;;5015025;28;20041;-76
2024/02/01 10:40:47;;;;;;;10.65;4.82;;;4.70;99.90;;;;;;5014336;28;20033;-76
2024/02/01 10:43:20;;;;;;;11.05;4.03;;;4.70;99.90;;;;;;5016192;28;20900;-76
2024/02/01 10:45:50;;;;;;;10.52;4.93;;;4.50;99.90;;;;;;5015996;28;20037;-74
2024/02/01 10:48:18;;;;;;;12.57;4.60;;;4.60;99.90;;;;;;5015270;28;20103;-76
2024/02/01 10:50:44;;;;;;;11.02;5.45;;;4.70;99.90;;;;;;5013698;28;20044;-76
2024/02/01 10:53:11;;;;;;;11.90;4.82;;;4.70;99.90;;;;;;5015502;28;20037;-76
2024/02/01 10:55:40;;;;;;;9.13;3.95;;;4.70;99.90;;;;;;5014593;28;20034;-76
2024/02/01 10:58:13;;;;;;;6.03;3.20;;;4.90;99.90;;;;;;5015273;28;20030;-75
2024/02/01 11:00:43;;;;;;;8.23;2.85;;;5.30;99.00;;;;;;5015208;28;20034;-76
2024/02/01 11:03:11;;;;;;;11.15;4.57;;;5.60;98.70;;;;;;5016166;28;20057;-76
2024/02/01 11:05:38;;;;;;;7.18;2.92;;;5.30;99.10;;;;;;5014634;28;20057;-74
2024/02/01 11:08:16;;;;;;;5.68;2.90;;;5.50;98.30;;;;;;5014023;28;20498;-73
2024/02/01 11:10:52;;;;;;;5.47;2.85;;;5.70;98.10;;;;;;5014122;28;20049;-73
2024/02/01 11:13:28;;;;;;;6.68;3.00;;;5.60;98.40;;;;;;5015881;28;20060;-74
2024/02/01 11:15:55;;;;;;;6.63;2.63;;;5.60;98.30;;;;;;5013311;28;20832;-74
2024/02/01 11:18:21;;;;;;;7.32;2.92;;;5.50;98.30;;;;;;5014869;28;20041;-74
2024/02/01 11:20:55;;;;;;;7.20;2.60;;;5.50;98.20;;;;;;5013668;28;20100;-74
2024/02/01 11:23:21;;;;;;;6.60;2.22;;;5.60;98.10;;;;;;5013380;28;20037;-74
2024/02/01 11:25:49;;;;;;;9.15;4.05;;;5.70;97.90;;;;;;5014151;28;20044;-73
2024/02/01 11:28:28;;;;;;;8.02;3.28;;;5.80;98.50;;;;;;5014378;28;21007;-73
2024/02/01 11:30:54;;;;;;;7.93;4.60;;;5.70;98.30;;;;;;5009382;28;20889;-73
2024/02/01 11:33:25;;;;;;;13.48;6.90;;;5.70;98.40;;;;;;5012342;28;20052;-74
2024/02/01 11:35:55;;;;;;;13.65;4.97;;;5.60;99.00;;;;;;5011479;28;20022;-74
2024/02/01 11:38:21;;;;;;;10.30;4.93;;;5.50;99.60;;;;;;5010637;28;20521;-74
2024/02/01 11:40:46;;;;;;;9.52;4.32;;;5.40;99.80;;;;;;5008578;28;20041;-74
2024/02/01 11:43:12;;;;;;;9.07;4.40;;;5.40;99.90;;;;;;5011337;28;20117;-74
2024/02/01 11:45:38;;;;;;;7.40;3.78;;;5.40;99.80;;;;;;5010566;28;20125;-74
2024/02/01 11:48:06;;;;;;;9.23;4.35;;;5.30;99.90;;;;;;5013258;28;20021;-73
2024/02/01 11:50:32;;;;;;;12.90;5.80;;;5.30;99.90;;;;;;5011287;28;20403;-74
2024/02/01 11:53:05;;;;;;;9.82;4.63;;;5.20;99.90;;;;;;5011708;28;20095;-73
2024/02/01 11:55:33;;;;;;;11.93;5.18;;;5.20;99.90;;;;;;5012541;28;20038;-74
2024/02/01 11:58:00;;;;;;;11.52;4.88;;;5.20;99.90;;;;;;5026587;28;20427;-74
2024/02/01 12:00:26;;;;;;;6.18;3.55;;;5.30;99.90;;;;;;5010869;28;20026;-73
2024/02/01 12:02:52;;;;;;;9.45;4.70;;;5.30;99.90;;;;;;5011876;28;20039;-74
2024/02/01 12:05:23;;;;;;;9.02;4.00;;;5.30;99.90;;;;;;5010356;28;20046;-74
2024/02/01 12:07:49;;;;;;;9.27;4.18;;;5.30;99.90;;;;;;5007920;28;20043;-74
2024/02/01 12:10:16;;;;;;;8.32;4.20;;;5.40;99.80;;;;;;5041225;28;20102;-74
2024/02/01 12:12:44;;;;;;;8.10;4.20;;;5.50;99.70;;;;;;5047501;28;20764;-74
2024/02/01 12:15:12;;;;;;;9.65;4.70;;;5.60;99.60;;;;;;5047041;28;20032;-73
2024/02/01 12:17:48;;;;;;;8.23;4.53;;;5.50;99.90;;;;;;5047365;28;20036;-73
2024/02/01 12:20:18;;;;;;;6.95;4.00;;;5.30;99.90;;;;;;5047091;28;20406;-74
2024/02/01 12:22:48;;;;;;;12.43;4.18;;;5.20;99.70;;;;;;5047060;28;20036;-74
2024/02/01 12:25:19;;;;;;;15.95;11.77;;;5.20;99.70;;;;;;5046497;28;20263;-73
2024/02/01 12:27:48;;;;;;;25.60;14.68;;;5.30;99.90;;;;;;5047100;28;20044;-73
2024/02/01 12:30:14;;;;;;;16.23;8.98;;;5.50;99.90;;;;;;5046692;28;20037;-73
2024/02/01 12:32:46;;;;;;;13.73;7.28;;;5.50;99.90;;;;;;5047023;28;20066;-74
2024/02/01 12:35:17;;;;;;;12.38;5.68;;;5.50;99.70;;;;;;5046997;28;20035;-74
2024/02/01 12:37:44;;;;;;;14.68;5.97;;;5.40;99.90;;;;;;5047357;28;20036;-74
2024/02/01 12:40:14;;;;;;;8.85;5.38;;;5.40;99.90;;;;;;5044046;28;20616;-75
2024/02/01 12:42:41;;;;;;;11.15;5.20;;;5.50;99.70;;;;;;5045676;28;20442;-74
2024/02/01 12:45:20;;;;;;;10.82;4.63;;;5.50;99.60;;;;;;5048208;28;20999;-74
2024/02/01 12:47:51;;;;;;;9.07;4.35;;;5.70;99.70;;;;;;5048148;28;20029;-74
2024/02/01 12:50:18;;;;;;;7.40;4.18;;;5.80;99.80;;;;;;5046562;28;20029;-74
2024/02/01 12:52:45;;;;;;;12.25;5.20;;;5.80;99.90;;;;;;5046504;28;20575;-74
2024/02/01 12:55:11;;;;;;;15.45;6.10;;;5.70;99.70;;;;;;5047755;28;20028;-74
2024/02/01 12:57:40;;;;;;;62.67;31.98;;;5.80;99.90;;;;;;5047008;28;20033;-74
2024/02/01 13:00:10;;;;;;;53.17;26.88;;;5.80;99.90;;;;;;5045689;28;20044;-73
2024/02/01 13:02:36;;;;;;;30.08;20.50;;;5.90;99.70;;;;;;5045545;28;20033;-74
2024/02/01 13:05:07;;;;;;;22.58;12.45;;;6.00;99.60;;;;;;5046828;28;20760;-74
2024/02/01 13:07:36;;;;;;;16.77;9.38;;;6.10;99.60;;;;;;5045744;28;20036;-74
2024/02/01 13:10:13;;;;;;;11.68;7.07;;;6.20;99.30;;;;;;5045378;28;20052;-74
2024/02/01 13:12:54;;;;;;;11.88;5.82;;;6.20;98.70;;;;;;5046998;28;20042;-75
2024/02/01 13:15:26;;;;;;;10.50;5.53;;;6.30;98.50;;;;;;5046336;28;20037;-74
2024/02/01 13:17:53;;;;;;;10.90;5.07;;;6.50;98.50;;;;;;5045906;28;20033;-74
2024/02/01 13:20:22;;;;;;;9.88;5.70;;;6.70;98.10;;;;;;5045843;28;20125;-77
2024/02/01 13:22:49;;;;;;;9.40;4.28;;;6.70;97.70;;;;;;5046973;28;20391;-75
2024/02/01 13:25:19;;;;;;;9.93;5.80;;;6.80;97.80;;;;;;5047146;28;20051;-75
2024/02/01 13:27:49;;;;;;;10.77;5.07;;;6.90;98.00;;;;;;5045523;28;20043;-74
2024/02/01 13:30:16;;;;;;;7.55;4.13;;;6.90;97.50;;;;;;5043963;28;20765;-73
2024/02/01 13:32:43;;;;;;;11.75;4.43;;;6.80;97.70;;;;;;5045504;28;20441;-74
2024/02/01 13:35:13;;;;;;;10.90;5.43;;;6.70;98.30;;;;;;5045429;28;20037;-74
2024/02/01 13:37:39;;;;;;;9.63;4.28;;;6.70;98.50;;;;;;5042039;28;20474;-74
2024/02/01 13:40:05;;;;;;;14.88;5.03;;;6.70;98.90;;;;;;5042507;28;20035;-75
2024/02/01 13:42:34;;;;;;;13.68;5.90;;;6.70;99.10;;;;;;5041290;28;20028;-76